createdAt,value
2017-10-11T00:02:19.020Z,14.43
2017-10-11T00:04:48.599Z,17.00
2017-10-11T00:07:17.611Z,14.60
2017-10-11T00:09:46.627Z,20.13
2017-10-11T00:12:15.767Z,14.70
2017-10-11T00:14:44.979Z,17.07
2017-10-11T00:17:14.182Z,23.40
2017-10-11T00:19:43.213Z,18.20
2017-10-11T00:22:12.667Z,19.53
2017-10-11T00:24:41.860Z,19.03
2017-10-11T00:27:10.964Z,15.20
2017-10-11T00:29:40.098Z,20.90
2017-10-11T00:32:09.270Z,19.80
2017-10-11T00:34:41.575Z,31.57
2017-10-11T00:37:10.774Z,19.73
2017-10-11T00:39:39.910Z,21.23
2017-10-11T00:42:09.256Z,25.17
2017-10-11T00:44:38.378Z,15.93
2017-10-11T00:47:08.076Z,17.10
2017-10-11T00:49:37.193Z,21.43
2017-10-11T00:52:12.602Z,20.80
2017-10-11T00:54:41.757Z,14.53
2017-10-11T00:57:11.231Z,18.20
2017-10-11T00:59:40.564Z,16.43
2017-10-11T01:02:16.908Z,31.50
2017-10-11T01:04:46.105Z,23.33
2017-10-11T01:07:15.571Z,18.27
2017-10-11T01:09:44.741Z,15.77
2017-10-11T01:12:14.256Z,17.23
2017-10-11T01:14:50.736Z,15.80
2017-10-11T01:17:19.897Z,16.20
2017-10-11T01:19:49.535Z,28.87
2017-10-11T01:22:18.673Z,22.20
2017-10-11T01:24:54.594Z,19.33
2017-10-11T01:27:23.790Z,28.37
2017-10-11T01:29:59.900Z,21.53
2017-10-11T01:32:29.425Z,17.93
2017-10-11T01:34:59.841Z,16.10
2017-10-11T01:37:29.002Z,23.73
2017-10-11T01:39:58.221Z,14.83
2017-10-11T01:42:27.826Z,20.57
2017-10-11T01:44:56.987Z,22.47
2017-10-11T01:47:30.741Z,17.90
2017-10-11T01:50:00.170Z,20.77
2017-10-11T01:52:29.479Z,20.53
2017-10-11T01:54:58.819Z,14.50
2017-10-11T01:57:27.936Z,16.10
2017-10-11T01:59:57.086Z,16.33
2017-10-11T02:02:26.258Z,17.70
2017-10-11T02:04:55.723Z,18.10
2017-10-11T02:07:38.727Z,21.07
2017-10-11T02:10:07.873Z,25.40
2017-10-11T02:12:37.377Z,17.10
2017-10-11T02:15:06.655Z,14.63
2017-10-11T02:17:45.093Z,15.33
2017-10-11T02:20:20.734Z,19.63
2017-10-11T02:22:49.956Z,21.70
2017-10-11T02:25:19.218Z,20.33
2017-10-11T02:27:48.661Z,16.57
2017-10-11T02:30:17.822Z,22.33
2017-10-11T02:32:47.141Z,16.93
2017-10-11T02:35:16.410Z,21.40
2017-10-11T02:37:45.757Z,19.30
2017-10-11T02:40:18.202Z,15.17
2017-10-11T02:42:47.400Z,23.20
2017-10-11T02:45:16.702Z,17.70
2017-10-11T02:47:45.995Z,21.47
2017-10-11T02:50:15.119Z,17.43
2017-10-11T02:52:44.272Z,17.07
2017-10-11T02:55:13.608Z,17.77
2017-10-11T02:57:42.906Z,19.87
2017-10-11T03:00:24.337Z,19.07
2017-10-11T03:02:53.458Z,18.83
2017-10-11T03:05:22.732Z,25.43
2017-10-11T03:07:52.099Z,27.03
2017-10-11T03:10:32.279Z,20.80
2017-10-11T03:13:01.423Z,20.37
2017-10-11T03:15:30.766Z,23.10
2017-10-11T03:17:59.901Z,22.47
2017-10-11T03:20:29.017Z,18.17
2017-10-11T03:22:58.158Z,17.43
2017-10-11T03:25:27.293Z,26.43
2017-10-11T03:28:02.750Z,17.90
2017-10-11T03:30:39.362Z,31.47
2017-10-11T03:33:08.860Z,38.33
2017-10-11T03:35:38.024Z,18.20
2017-10-11T03:38:07.156Z,23.97
2017-10-11T03:40:36.314Z,54.70
2017-10-11T03:43:11.477Z,44.13
2017-10-11T03:45:40.642Z,33.03
2017-10-11T03:48:09.759Z,29.20
2017-10-11T03:50:42.705Z,32.30
2017-10-11T03:53:11.838Z,53.17
2017-10-11T03:55:42.111Z,24.77
2017-10-11T03:58:11.246Z,22.30
2017-10-11T04:00:40.427Z,25.80
2017-10-11T04:03:09.542Z,22.17
2017-10-11T04:05:38.694Z,18.30
2017-10-11T04:08:07.856Z,22.13
2017-10-11T04:10:37.015Z,53.33
2017-10-11T04:13:07.881Z,24.13
2017-10-11T04:15:37.706Z,29.40
2017-10-11T04:18:08.269Z,39.47
2017-10-11T04:20:37.372Z,48.30
2017-10-11T04:23:06.526Z,109.53
2017-10-11T04:25:35.719Z,74.57
2017-10-11T04:28:05.126Z,74.73
2017-10-11T04:30:35.428Z,47.20
2017-10-11T04:33:05.621Z,48.37
2017-10-11T04:35:34.830Z,56.63
2017-10-11T04:38:13.263Z,55.90
2017-10-11T04:40:49.181Z,38.23
2017-10-11T04:43:18.378Z,107.37
2017-10-11T04:45:53.735Z,97.53
2017-10-11T04:48:22.909Z,51.37
2017-10-11T04:51:07.573Z,78.47
2017-10-11T04:53:38.117Z,79.30
2017-10-11T04:56:07.265Z,53.27
2017-10-11T04:58:36.394Z,43.33
2017-10-11T05:01:05.544Z,49.67
2017-10-11T05:03:40.720Z,57.07
2017-10-11T05:06:11.320Z,46.40
2017-10-11T05:08:41.282Z,45.00
2017-10-11T05:11:10.414Z,32.83
2017-10-11T05:13:39.538Z,36.53
2017-10-11T05:16:08.659Z,52.70
2017-10-11T05:18:47.191Z,36.30
2017-10-11T05:21:16.333Z,35.43
2017-10-11T05:23:53.548Z,25.57
2017-10-11T05:26:22.704Z,31.63
2017-10-11T05:28:58.925Z,17.97
2017-10-11T05:31:28.234Z,44.43
2017-10-11T05:34:03.657Z,30.27
2017-10-11T05:36:32.780Z,73.80
2017-10-11T05:39:07.985Z,35.93
2017-10-11T05:41:37.144Z,40.43
2017-10-11T05:44:12.398Z,59.80
2017-10-11T05:46:41.515Z,27.43
2017-10-11T05:49:10.657Z,33.87
2017-10-11T05:51:39.827Z,31.47
2017-10-11T05:54:09.002Z,31.03
2017-10-11T05:56:38.144Z,25.73
2017-10-11T05:59:10.966Z,23.67
2017-10-11T06:01:40.116Z,29.93
2017-10-11T06:04:09.739Z,40.20
2017-10-11T06:06:38.892Z,30.17
2017-10-11T06:09:08.001Z,25.67
2017-10-11T06:11:44.618Z,26.50
2017-10-11T06:14:27.244Z,34.37
2017-10-11T06:17:01.730Z,59.00
2017-10-11T06:19:30.847Z,50.30
2017-10-11T06:22:00.022Z,46.37
2017-10-11T06:24:29.347Z,39.20
2017-10-11T06:26:58.498Z,45.47
2017-10-11T06:29:27.648Z,38.50
2017-10-11T06:31:56.891Z,62.97
2017-10-11T06:34:26.105Z,63.33
2017-10-11T06:36:55.659Z,47.27
2017-10-11T06:39:24.821Z,44.80
2017-10-11T06:41:54.218Z,38.17
2017-10-11T06:44:23.360Z,57.13
2017-10-11T06:46:52.485Z,84.20
2017-10-11T06:49:21.701Z,58.03
2017-10-11T06:51:51.022Z,82.53
2017-10-11T06:54:35.544Z,51.70
2017-10-11T06:57:04.675Z,61.03
2017-10-11T06:59:41.732Z,63.20
2017-10-11T07:02:10.915Z,56.10
2017-10-11T07:04:47.950Z,74.77
2017-10-11T07:07:23.711Z,56.50
2017-10-11T07:09:53.629Z,78.40
2017-10-11T07:12:22.783Z,46.03
2017-10-11T07:14:58.297Z,75.33
2017-10-11T07:17:27.966Z,66.57
2017-10-11T07:19:57.229Z,53.07
2017-10-11T07:22:26.450Z,88.57
2017-10-11T07:24:55.587Z,82.30
2017-10-11T07:27:24.942Z,32.60
2017-10-11T07:29:54.052Z,55.00
2017-10-11T07:32:23.471Z,32.63
2017-10-11T07:34:52.837Z,32.17
2017-10-11T07:37:22.077Z,31.13
2017-10-11T07:39:51.496Z,55.67
2017-10-11T07:42:20.605Z,28.10
2017-10-11T07:44:49.809Z,30.63
2017-10-11T07:47:18.978Z,26.27
2017-10-11T07:50:01.861Z,23.13
2017-10-11T07:52:31.063Z,19.73
2017-10-11T07:55:02.063Z,15.13
2017-10-11T07:57:31.814Z,9.53
2017-10-11T08:00:01.003Z,24.60
2017-10-11T08:02:33.731Z,29.50
2017-10-11T08:05:03.415Z,12.97
2017-10-11T08:07:32.699Z,13.23
2017-10-11T08:10:01.821Z,16.63
2017-10-11T08:12:37.897Z,18.87
2017-10-11T08:15:14.813Z,17.40
2017-10-11T08:17:44.161Z,14.67
2017-10-11T08:20:13.232Z,10.53
2017-10-11T08:22:48.653Z,9.07
2017-10-11T08:25:17.840Z,8.87
2017-10-11T08:27:47.236Z,24.57
2017-10-11T08:30:16.428Z,18.33
2017-10-11T08:32:45.578Z,13.40
2017-10-11T08:35:14.817Z,5.13
2017-10-11T08:37:44.102Z,7.67
2017-10-11T08:40:13.259Z,10.70
2017-10-11T08:42:42.507Z,9.63
2017-10-11T08:45:11.657Z,23.17
2017-10-11T08:47:40.823Z,21.67
2017-10-11T08:50:16.640Z,14.87
2017-10-11T08:52:45.795Z,10.50
2017-10-11T08:55:14.925Z,30.33
2017-10-11T08:57:44.710Z,15.63
2017-10-11T09:00:13.866Z,13.20
2017-10-11T09:02:50.070Z,26.30
2017-10-11T09:05:19.190Z,11.77
2017-10-11T09:07:48.584Z,10.40
2017-10-11T09:10:18.478Z,16.10
2017-10-11T09:12:55.664Z,7.40
2017-10-11T09:15:24.816Z,16.40
2017-10-11T09:17:54.989Z,8.10
2017-10-11T09:20:25.631Z,18.67
2017-10-11T09:22:54.763Z,17.83
2017-10-11T09:25:23.902Z,13.47
2017-10-11T09:27:53.013Z,13.40
2017-10-11T09:30:22.537Z,6.07
2017-10-11T09:32:51.954Z,9.17
2017-10-11T09:35:21.082Z,12.00
2017-10-11T09:37:50.214Z,14.67
2017-10-11T09:40:19.386Z,8.23
2017-10-11T09:42:48.526Z,12.53
2017-10-11T09:45:17.669Z,8.37
2017-10-11T09:47:46.761Z,10.63
2017-10-11T09:50:15.951Z,8.23
2017-10-11T09:52:45.078Z,7.13
2017-10-11T09:55:14.205Z,11.50
2017-10-11T09:57:58.532Z,13.03
2017-10-11T10:00:27.685Z,7.87
2017-10-11T10:02:56.809Z,11.70
2017-10-11T10:05:26.095Z,11.53
2017-10-11T10:07:55.198Z,14.10
2017-10-11T10:10:24.377Z,8.67
2017-10-11T10:13:06.721Z,20.77
2017-10-11T10:15:36.136Z,10.43
2017-10-11T10:18:05.261Z,13.93
2017-10-11T10:20:34.360Z,10.43
2017-10-11T10:23:03.478Z,11.33
2017-10-11T10:25:32.592Z,11.97
2017-10-11T10:28:01.729Z,17.10
2017-10-11T10:30:30.874Z,9.87
2017-10-11T10:33:00.029Z,11.40
2017-10-11T10:35:29.148Z,12.90
2017-10-11T10:37:58.296Z,11.57
2017-10-11T10:40:30.670Z,11.60
2017-10-11T10:42:59.810Z,13.13
2017-10-11T10:45:28.944Z,11.23
2017-10-11T10:47:58.057Z,6.53
2017-10-11T10:50:27.153Z,10.83
2017-10-11T10:52:57.838Z,11.20
2017-10-11T10:55:27.029Z,11.23
2017-10-11T10:57:56.398Z,9.73
2017-10-11T11:00:25.797Z,6.87
2017-10-11T11:02:54.930Z,14.20
2017-10-11T11:05:26.141Z,6.73
2017-10-11T11:08:02.537Z,8.93
2017-10-11T11:10:31.693Z,6.83
2017-10-11T11:13:00.818Z,12.23
2017-10-11T11:15:29.914Z,7.97
2017-10-11T11:18:00.371Z,12.20
2017-10-11T11:20:35.538Z,13.30
2017-10-11T11:23:04.678Z,7.43
2017-10-11T11:25:34.017Z,10.60
2017-10-11T11:28:03.136Z,10.27
2017-10-11T11:30:32.711Z,12.40
2017-10-11T11:33:01.969Z,8.60
2017-10-11T11:35:31.430Z,10.27
2017-10-11T11:38:02.149Z,14.77
2017-10-11T11:40:37.268Z,8.27
2017-10-11T11:43:06.880Z,8.53
2017-10-11T11:45:43.291Z,8.10
2017-10-11T11:48:12.421Z,12.93
2017-10-11T11:50:41.852Z,11.87
2017-10-11T11:53:10.946Z,11.80
2017-10-11T11:55:40.885Z,6.97
2017-10-11T11:58:17.441Z,8.70
2017-10-11T12:00:59.252Z,12.67
2017-10-11T12:03:28.614Z,8.63
2017-10-11T12:05:57.862Z,15.80
2017-10-11T12:08:26.977Z,15.60
2017-10-11T12:10:56.128Z,8.83
2017-10-11T12:13:25.284Z,8.27
2017-10-11T12:15:54.424Z,6.83
2017-10-11T12:18:23.581Z,6.80
2017-10-11T12:20:52.712Z,5.53
2017-10-11T12:23:21.843Z,8.57
2017-10-11T12:25:51.112Z,17.53
2017-10-11T12:28:20.404Z,10.57
2017-10-11T12:30:55.689Z,5.90
2017-10-11T12:33:31.842Z,9.70
2017-10-11T12:36:00.939Z,7.70
2017-10-11T12:38:30.069Z,5.43
2017-10-11T12:40:59.324Z,5.93
2017-10-11T12:43:28.824Z,11.10
2017-10-11T12:45:57.971Z,6.83
2017-10-11T12:48:27.089Z,7.53
2017-10-11T12:50:57.125Z,19.13
2017-10-11T12:53:26.297Z,8.33
2017-10-11T12:55:55.737Z,5.30
2017-10-11T12:58:24.914Z,3.73
2017-10-11T13:00:54.026Z,6.43
2017-10-11T13:03:23.261Z,11.23
2017-10-11T13:05:58.585Z,3.57
2017-10-11T13:08:34.642Z,5.40
2017-10-11T13:11:03.791Z,6.80
2017-10-11T13:13:39.052Z,6.03
2017-10-11T13:16:08.421Z,7.60
2017-10-11T13:18:37.561Z,3.70
2017-10-11T13:21:13.801Z,8.10
2017-10-11T13:23:42.887Z,7.87
2017-10-11T13:26:12.422Z,15.87
2017-10-11T13:28:41.793Z,7.27
2017-10-11T13:31:16.965Z,10.07
2017-10-11T13:33:46.118Z,3.63
2017-10-11T13:36:15.409Z,14.93
2017-10-11T13:38:44.522Z,8.70
2017-10-11T13:41:13.852Z,8.27
2017-10-11T13:43:53.653Z,11.93
2017-10-11T13:46:23.048Z,14.00
2017-10-11T13:48:58.486Z,7.17
2017-10-11T13:51:27.758Z,14.03
2017-10-11T13:53:56.954Z,5.50
2017-10-11T13:56:27.972Z,11.57
2017-10-11T13:58:57.087Z,9.50
2017-10-11T14:01:32.394Z,22.53
2017-10-11T14:04:01.590Z,9.80
2017-10-11T14:06:37.710Z,6.50
2017-10-11T14:09:07.182Z,6.57
2017-10-11T14:11:36.475Z,5.70
2017-10-11T14:14:05.934Z,20.03
2017-10-11T14:16:35.341Z,13.90
2017-10-11T14:19:04.532Z,6.93
2017-10-11T14:21:33.918Z,5.13
2017-10-11T14:24:03.134Z,11.07
2017-10-11T14:26:32.331Z,8.93
2017-10-11T14:29:02.715Z,12.50
2017-10-11T14:31:32.012Z,6.30
2017-10-11T14:34:01.419Z,10.13
2017-10-11T14:36:31.473Z,11.67
2017-10-11T14:39:00.591Z,5.20
2017-10-11T14:41:29.703Z,21.17
2017-10-11T14:43:58.986Z,7.10
2017-10-11T14:46:28.222Z,8.00
2017-10-11T14:48:57.345Z,7.23
2017-10-11T14:51:42.118Z,6.60
2017-10-11T14:54:11.462Z,9.07
2017-10-11T14:56:40.578Z,7.67
2017-10-11T14:59:17.747Z,13.20
2017-10-11T15:01:46.896Z,7.67
2017-10-11T15:04:16.047Z,10.17
2017-10-11T15:06:45.149Z,4.60
2017-10-11T15:09:14.267Z,4.90
2017-10-11T15:11:43.548Z,6.80
2017-10-11T15:14:12.696Z,7.10
2017-10-11T15:16:42.030Z,8.93
2017-10-11T15:19:11.398Z,11.97
2017-10-11T15:21:40.495Z,8.07
2017-10-11T15:24:09.645Z,6.77
2017-10-11T15:26:38.851Z,13.87
2017-10-11T15:29:08.322Z,9.67
2017-10-11T15:31:41.014Z,7.27
2017-10-11T15:34:16.255Z,5.33
2017-10-11T15:36:46.990Z,12.13
2017-10-11T15:39:17.498Z,13.83
2017-10-11T15:41:46.850Z,10.83
2017-10-11T15:44:16.141Z,13.43
2017-10-11T15:46:45.252Z,23.93
2017-10-11T15:49:14.479Z,11.13
2017-10-11T15:51:50.923Z,9.90
2017-10-11T15:54:20.079Z,6.17
2017-10-11T15:56:49.196Z,13.93
2017-10-11T15:59:19.447Z,13.90
2017-10-11T16:01:48.553Z,9.30
2017-10-11T16:04:17.894Z,14.20
2017-10-11T16:06:47.043Z,9.73
2017-10-11T16:09:16.182Z,10.37
2017-10-11T16:11:45.456Z,17.67
2017-10-11T16:14:14.806Z,9.80
2017-10-11T16:16:43.906Z,16.27
2017-10-11T16:19:14.035Z,16.13
2017-10-11T16:21:43.292Z,16.93
2017-10-11T16:24:13.972Z,17.17
2017-10-11T16:26:43.113Z,10.90
2017-10-11T16:29:12.217Z,9.00
2017-10-11T16:31:41.491Z,18.87
2017-10-11T16:34:15.333Z,12.53
2017-10-11T16:36:44.619Z,11.00
2017-10-11T16:39:13.746Z,6.17
2017-10-11T16:41:43.102Z,10.90
2017-10-11T16:44:12.370Z,13.40
2017-10-11T16:46:47.726Z,15.30
2017-10-11T16:49:16.894Z,8.83
2017-10-11T16:51:46.288Z,14.47
2017-10-11T16:54:15.678Z,12.80
2017-10-11T16:56:46.018Z,19.80
2017-10-11T16:59:24.007Z,9.70
2017-10-11T17:01:54.279Z,15.23
2017-10-11T17:04:23.421Z,17.33
2017-10-11T17:07:08.225Z,14.40
2017-10-11T17:09:37.377Z,11.27
2017-10-11T17:12:06.554Z,14.80
2017-10-11T17:14:35.770Z,15.27
2017-10-11T17:17:05.415Z,12.33
2017-10-11T17:19:34.535Z,13.73
2017-10-11T17:22:12.498Z,19.33
2017-10-11T17:24:41.920Z,12.97
2017-10-11T17:27:15.068Z,19.03
2017-10-11T17:29:44.470Z,13.00
2017-10-11T17:32:14.496Z,22.60
2017-10-11T17:34:43.773Z,10.10
2017-10-11T17:37:14.596Z,15.00
2017-10-11T17:39:43.989Z,12.47
2017-10-11T17:42:13.157Z,14.80
2017-10-11T17:44:42.476Z,17.80
2017-10-11T17:47:11.978Z,16.57
2017-10-11T17:49:48.477Z,15.60
2017-10-11T17:52:17.851Z,24.07
2017-10-11T17:54:47.020Z,15.53
2017-10-11T17:57:16.167Z,15.10
2017-10-11T17:59:52.062Z,11.13
2017-10-11T18:02:27.493Z,16.17
2017-10-11T18:04:57.018Z,12.97
2017-10-11T18:07:26.194Z,19.57
2017-10-11T18:09:55.656Z,26.53
2017-10-11T18:12:24.799Z,16.53
2017-10-11T18:14:54.037Z,22.77
2017-10-11T18:17:23.371Z,23.30
2017-10-11T18:19:52.464Z,27.83
2017-10-11T18:22:21.834Z,22.87
2017-10-11T18:24:52.565Z,22.57
2017-10-11T18:27:21.870Z,29.70
2017-10-11T18:29:52.207Z,19.97
2017-10-11T18:32:21.493Z,20.20
2017-10-11T18:34:51.134Z,21.27
2017-10-11T18:37:20.868Z,21.73
2017-10-11T18:39:51.503Z,31.40
2017-10-11T18:42:20.650Z,25.80
2017-10-11T18:44:49.879Z,20.63
2017-10-11T18:47:19.245Z,26.50
2017-10-11T18:49:50.468Z,22.40
2017-10-11T18:52:19.817Z,26.50
2017-10-11T18:54:56.599Z,27.03
2017-10-11T18:57:26.346Z,19.87
2017-10-11T19:00:01.552Z,19.53
2017-10-11T19:02:31.337Z,25.63
2017-10-11T19:05:00.602Z,23.17
2017-10-11T19:07:42.908Z,39.13
2017-10-11T19:10:12.463Z,20.37
2017-10-11T19:12:54.013Z,25.80
2017-10-11T19:15:24.007Z,27.20
2017-10-11T19:17:53.239Z,21.37
2017-10-11T19:20:22.810Z,23.47
2017-10-11T19:22:52.553Z,24.30
2017-10-11T19:25:21.911Z,27.90
2017-10-11T19:27:51.359Z,23.90
2017-10-11T19:30:20.530Z,27.97
2017-10-11T19:32:49.938Z,19.33
2017-10-11T19:35:19.661Z,22.60
2017-10-11T19:37:48.996Z,25.83
2017-10-11T19:40:18.795Z,26.40
2017-10-11T19:42:49.485Z,29.63
2017-10-11T19:45:19.582Z,17.60
2017-10-11T19:47:49.312Z,20.93
2017-10-11T19:50:18.958Z,19.97
2017-10-11T19:52:48.131Z,19.50
2017-10-11T19:55:17.421Z,18.50
2017-10-11T19:57:46.635Z,18.97
2017-10-11T20:00:31.308Z,24.83
2017-10-11T20:03:00.650Z,18.70
2017-10-11T20:05:30.049Z,20.17
2017-10-11T20:07:59.325Z,24.17
2017-10-11T20:10:30.387Z,19.90
2017-10-11T20:12:59.647Z,21.27
2017-10-11T20:15:28.764Z,24.70
2017-10-11T20:17:58.855Z,26.20
2017-10-11T20:20:28.139Z,22.30
2017-10-11T20:22:57.563Z,22.13
2017-10-11T20:25:30.303Z,29.27
2017-10-11T20:27:59.729Z,18.20
2017-10-11T20:30:29.241Z,19.07
2017-10-11T20:32:58.349Z,27.77
2017-10-11T20:35:29.054Z,32.40
2017-10-11T20:37:59.156Z,25.23
2017-10-11T20:40:29.899Z,27.67
2017-10-11T20:42:59.228Z,24.73
2017-10-11T20:45:29.294Z,17.43
2017-10-11T20:47:58.474Z,23.53
2017-10-11T20:50:32.275Z,17.37
2017-10-11T20:53:01.466Z,21.50
2017-10-11T20:55:30.775Z,20.63
2017-10-11T20:57:59.937Z,24.83
2017-10-11T21:00:30.676Z,21.50
2017-10-11T21:02:59.931Z,26.00
2017-10-11T21:05:30.078Z,20.60
2017-10-11T21:07:59.687Z,19.30
2017-10-11T21:10:36.054Z,32.07
2017-10-11T21:13:05.302Z,24.33
2017-10-11T21:15:43.818Z,30.03
2017-10-11T21:18:15.375Z,24.63
2017-10-11T21:20:44.819Z,22.90
2017-10-11T21:23:27.975Z,21.57
2017-10-11T21:25:58.041Z,22.73
2017-10-11T21:28:27.187Z,24.53
2017-10-11T21:30:56.337Z,23.50
2017-10-11T21:33:25.446Z,21.43
2017-10-11T21:35:54.675Z,25.63
2017-10-11T21:38:23.987Z,21.70
2017-10-11T21:40:53.291Z,26.57
2017-10-11T21:43:24.256Z,20.10
2017-10-11T21:45:53.390Z,23.10
2017-10-11T21:48:22.654Z,24.07
2017-10-11T21:50:52.642Z,27.33
2017-10-11T21:53:21.746Z,21.60
2017-10-11T21:55:50.869Z,33.20
2017-10-11T21:58:20.182Z,22.70
2017-10-11T22:00:49.322Z,24.70
2017-10-11T22:03:18.461Z,24.70
2017-10-11T22:05:48.297Z,24.30
2017-10-11T22:08:17.667Z,21.07
2017-10-11T22:10:46.923Z,22.40
2017-10-11T22:13:30.267Z,22.87
2017-10-11T22:15:59.589Z,21.63
2017-10-11T22:18:28.733Z,24.20
2017-10-11T22:20:57.866Z,21.73
2017-10-11T22:23:27.420Z,22.37
2017-10-11T22:25:56.542Z,20.43
2017-10-11T22:28:25.825Z,25.70
2017-10-11T22:30:55.170Z,25.10
2017-10-11T22:33:28.007Z,23.10
2017-10-11T22:35:57.163Z,18.00
2017-10-11T22:38:26.714Z,19.07
2017-10-11T22:41:02.659Z,17.10
2017-10-11T22:43:39.674Z,18.60
2017-10-11T22:46:09.513Z,23.43
2017-10-11T22:48:46.309Z,22.73
2017-10-11T22:51:15.640Z,19.37
2017-10-11T22:53:44.889Z,26.53
2017-10-11T22:56:14.049Z,26.53
2017-10-11T22:58:49.345Z,18.93
2017-10-11T23:01:18.482Z,23.03
2017-10-11T23:03:47.618Z,19.90
2017-10-11T23:06:16.740Z,27.50
2017-10-11T23:08:46.024Z,28.27
2017-10-11T23:11:15.247Z,19.47
2017-10-11T23:13:51.278Z,23.83
2017-10-11T23:16:22.171Z,24.47
2017-10-11T23:18:51.328Z,24.00
2017-10-11T23:21:21.526Z,22.93
2017-10-11T23:23:50.681Z,24.07
2017-10-11T23:26:27.180Z,23.80
2017-10-11T23:28:56.303Z,34.23
2017-10-11T23:31:25.459Z,27.00
2017-10-11T23:33:55.216Z,23.73
2017-10-11T23:36:24.835Z,27.43
2017-10-11T23:38:54.131Z,32.37
2017-10-11T23:41:23.265Z,33.60
2017-10-11T23:44:05.746Z,24.63
2017-10-11T23:46:41.856Z,30.37
2017-10-11T23:49:11.005Z,23.67
2017-10-11T23:51:40.359Z,28.47
2017-10-11T23:54:09.566Z,27.23
2017-10-11T23:56:38.646Z,24.50
2017-10-11T23:59:07.754Z,26.47
